KPOB

Pope AAF Airport

Fayetteville, North Carolina, USA
METAR KPOB 191856Z AUTO 00000KT 10SM BKN055 31/19 A2994 RMK AO2 SLP139 T03120185 $
Observed Flight Rules
Sep-19 @ 18:56 UTC (33 minutes ago) Visual Flight Rules
Visibility Clouds
10 miles
  • Broken at 5,500' AGL
Temperatures Readings
Current 31°C / 88°F
Dewpoint 19°C / 66°F
Humidity 49%
Altimeter 29.94" Hg
Pressure 1013.9 hPa
Elevation 66
METAR KPOB 191856Z AUTO 00000KT 10SM BKN055 31/19 A2994 RMK AO2 SLP139 T03120185 $
Observed Flight Rules
Sep-19 @ 18:56 UTC
(33 minutes ago)
VFR
Clouds
  • Broken at 5,500' AGL
Temperature Dewpoint
31°C / 88°F 19°C / 66°F
Humidity Altimeter Pressure
49% 29.94" Hg 1013.9 hPa